MQL weather

Mildura Airport
Mildura, Victoria, Australia

Public forecast

Using degrees Celsius for public forecast. Weather courtesy of forecast.io.

Current aviation weather report (METAR) for Mildura Airport

Report is more than 6 hours old.

Retrieved 2020/03/27 12:00 UTC (2 days ago):

YMIA 271200Z AUTO 09004KT 9999 // NCD 22/11 Q1019

Closest aviation forecast (TAF) to Mildura Airport

Closest forecast is Adelaide International Airport, 180.9 nm (335.0 km) WSW. Retrieved 2020/03/29 12:00 UTC (43 minutes ago):

TAF YPAD 291105Z 2912/3018 23009KT 9999 SCT025 SCT040 FM300000 24012KT 9999 SCT030 SCT050 FM300800 22005KT CAVOK FM301400 VRB03KT 9999 FEW020